LRD weather

Laredo International Airport
Laredo, Texas, United States

Public forecast

Using degrees Fahrenheit for public forecast. Weather courtesy of forecast.io.

METAR (pilot weather report)

Retrieved 2019/06/20 14:56 UTC (5 minutes ago):

KLRD 201456Z 14010KT 10SM CLR 31/24 A2981 RMK AO2 SLP088 T03110239 51014

TAF (pilot weather forecast)

Retrieved 2019/06/20 12:22 UTC (3 hours ago):

TAF KLRD 201120Z 2012/2112 13008KT P6SM BKN250 FM202100 14012G17KT P6SM SCT050 FM210300 14015KT P6SM BKN250